sensor_id;sensor_type;location;lat;lon;timestamp;pressure;altitude;pressure_sealevel;temperature;humidity
75891;BME280;64571;47.512;19.054;2023-04-06T00:02:25;100633.13;;;4.37;40.50
75891;BME280;64571;47.512;19.054;2023-04-06T00:05:28;100633.50;;;4.23;44.25
75891;BME280;64571;47.512;19.054;2023-04-06T00:08:32;100637.56;;;4.04;46.22
75891;BME280;64571;47.512;19.054;2023-04-06T00:11:35;100614.28;;;3.78;46.69
75891;BME280;64571;47.512;19.054;2023-04-06T00:14:37;100605.38;;;3.71;47.27
75891;BME280;64571;47.512;19.054;2023-04-06T00:17:40;100632.78;;;3.83;47.76
75891;BME280;64571;47.512;19.054;2023-04-06T00:20:43;100624.13;;;3.74;48.23
75891;BME280;64571;47.512;19.054;2023-04-06T00:23:45;100618.88;;;3.72;48.52
75891;BME280;64571;47.512;19.054;2023-04-06T00:26:48;100623.44;;;3.67;48.79
75891;BME280;64571;47.512;19.054;2023-04-06T00:29:50;100597.63;;;3.68;49.07
75891;BME280;64571;47.512;19.054;2023-04-06T00:32:53;100621.44;;;3.62;48.94
75891;BME280;64571;47.512;19.054;2023-04-06T00:35:56;100590.09;;;3.46;48.80
75891;BME280;64571;47.512;19.054;2023-04-06T00:38:58;100610.75;;;3.49;49.04
75891;BME280;64571;47.512;19.054;2023-04-06T00:42:12;100587.28;;;3.58;48.85
75891;BME280;64571;47.512;19.054;2023-04-06T00:45:15;100586.19;;;3.59;48.52
75891;BME280;64571;47.512;19.054;2023-04-06T00:48:18;100582.78;;;3.52;48.63
75891;BME280;64571;47.512;19.054;2023-04-06T00:51:22;100607.94;;;3.61;48.81
75891;BME280;64571;47.512;19.054;2023-04-06T00:54:24;100602.47;;;3.61;48.95
75891;BME280;64571;47.512;19.054;2023-04-06T00:57:27;100599.72;;;3.61;48.66
75891;BME280;64571;47.512;19.054;2023-04-06T01:00:31;100585.44;;;3.47;48.66
75891;BME280;64571;47.512;19.054;2023-04-06T01:03:35;100589.84;;;3.48;48.96
75891;BME280;64571;47.512;19.054;2023-04-06T01:06:38;100605.16;;;3.44;49.42
75891;BME280;64571;47.512;19.054;2023-04-06T01:09:41;100584.34;;;3.19;50.01
75891;BME280;64571;47.512;19.054;2023-04-06T01:12:48;100609.03;;;3.31;50.22
75891;BME280;64571;47.512;19.054;2023-04-06T01:15:52;100608.03;;;3.37;50.61
75891;BME280;64571;47.512;19.054;2023-04-06T01:18:56;100592.38;;;3.38;51.37
75891;BME280;64571;47.512;19.054;2023-04-06T01:21:58;100609.81;;;3.43;52.46
75891;BME280;64571;47.512;19.054;2023-04-06T01:25:03;100608.16;;;3.42;53.19
75891;BME280;64571;47.512;19.054;2023-04-06T01:28:06;100589.34;;;3.22;52.90
75891;BME280;64571;47.512;19.054;2023-04-06T01:31:09;100589.34;;;3.22;52.86
75891;BME280;64571;47.512;19.054;2023-04-06T01:34:13;100588.56;;;3.10;52.08
75891;BME280;64571;47.512;19.054;2023-04-06T01:37:15;100607.19;;;3.20;51.79
75891;BME280;64571;47.512;19.054;2023-04-06T01:40:18;100608.47;;;3.17;51.88
75891;BME280;64571;47.512;19.054;2023-04-06T01:43:21;100588.97;;;3.02;51.73
75891;BME280;64571;47.512;19.054;2023-04-06T01:46:28;100580.59;;;2.97;51.39
75891;BME280;64571;47.512;19.054;2023-04-06T01:49:31;100580.28;;;2.93;50.52
75891;BME280;64571;47.512;19.054;2023-04-06T01:52:34;100608.88;;;3.09;49.74
75891;BME280;64571;47.512;19.054;2023-04-06T01:55:37;100575.13;;;2.97;49.71
75891;BME280;64571;47.512;19.054;2023-04-06T01:58:43;100600.63;;;3.09;49.20
75891;BME280;64571;47.512;19.054;2023-04-06T02:01:46;100576.19;;;2.96;49.26
75891;BME280;64571;47.512;19.054;2023-04-06T02:04:49;100587.97;;;3.08;48.94
75891;BME280;64571;47.512;19.054;2023-04-06T02:07:53;100570.13;;;2.94;48.84
75891;BME280;64571;47.512;19.054;2023-04-06T02:10:57;100590.13;;;3.06;48.47
75891;BME280;64571;47.512;19.054;2023-04-06T02:14:00;100566.22;;;2.90;48.87
75891;BME280;64571;47.512;19.054;2023-04-06T02:17:03;100580.13;;;3.00;48.58
75891;BME280;64571;47.512;19.054;2023-04-06T02:20:06;100570.13;;;2.94;48.80
75891;BME280;64571;47.512;19.054;2023-04-06T02:23:09;100574.84;;;3.10;48.76
75891;BME280;64571;47.512;19.054;2023-04-06T02:26:12;100573.31;;;3.02;49.09
75891;BME280;64571;47.512;19.054;2023-04-06T02:29:14;100552.84;;;2.93;49.31
75891;BME280;64571;47.512;19.054;2023-04-06T02:32:17;100543.44;;;3.06;48.71
75891;BME280;64571;47.512;19.054;2023-04-06T02:35:20;100569.06;;;3.23;48.24
75891;BME280;64571;47.512;19.054;2023-04-06T02:38:25;100561.25;;;3.32;47.66
75891;BME280;64571;47.512;19.054;2023-04-06T02:41:27;100563.78;;;3.34;47.29
75891;BME280;64571;47.512;19.054;2023-04-06T02:44:31;100572.25;;;3.32;46.91
75891;BME280;64571;47.512;19.054;2023-04-06T02:47:34;100564.16;;;3.25;47.56
75891;BME280;64571;47.512;19.054;2023-04-06T02:50:37;100565.03;;;3.14;47.34
75891;BME280;64571;47.512;19.054;2023-04-06T02:53:40;100568.87;;;3.13;47.49
75891;BME280;64571;47.512;19.054;2023-04-06T02:56:43;100539.69;;;2.95;48.00
75891;BME280;64571;47.512;19.054;2023-04-06T02:59:46;100562.09;;;3.04;48.02
75891;BME280;64571;47.512;19.054;2023-04-06T03:02:49;100536.00;;;2.90;48.16
75891;BME280;64571;47.512;19.054;2023-04-06T03:05:52;100554.12;;;3.02;48.41
75891;BME280;64571;47.512;19.054;2023-04-06T03:08:58;100558.03;;;3.07;48.29
75891;BME280;64571;47.512;19.054;2023-04-06T03:12:00;100553.38;;;3.07;48.13
75891;BME280;64571;47.512;19.054;2023-04-06T03:15:06;100556.44;;;3.11;48.25
75891;BME280;64571;47.512;19.054;2023-04-06T03:18:09;100552.19;;;3.03;48.12
75891;BME280;64571;47.512;19.054;2023-04-06T03:21:13;100556.75;;;2.97;48.28
75891;BME280;64571;47.512;19.054;2023-04-06T03:24:19;100563.09;;;2.98;48.32
75891;BME280;64571;47.512;19.054;2023-04-06T03:27:22;100558.78;;;3.02;48.38
75891;BME280;64571;47.512;19.054;2023-04-06T03:30:25;100558.78;;;3.02;48.36
75891;BME280;64571;47.512;19.054;2023-04-06T03:33:29;100547.09;;;2.95;48.25
75891;BME280;64571;47.512;19.054;2023-04-06T03:36:34;100559.25;;;2.99;47.95
75891;BME280;64571;47.512;19.054;2023-04-06T03:39:37;100544.03;;;2.79;48.86
75891;BME280;64571;47.512;19.054;2023-04-06T03:42:39;100545.09;;;2.78;49.12
75891;BME280;64571;47.512;19.054;2023-04-06T03:45:43;100562.84;;;2.88;49.68
75891;BME280;64571;47.512;19.054;2023-04-06T03:48:48;100559.56;;;2.74;49.82
75891;BME280;64571;47.512;19.054;2023-04-06T03:51:52;100536.22;;;2.60;50.25
75891;BME280;64571;47.512;19.054;2023-04-06T03:54:55;100532.78;;;2.52;50.51
75891;BME280;64571;47.512;19.054;2023-04-06T03:57:57;100555.06;;;2.56;51.10
75891;BME280;64571;47.512;19.054;2023-04-06T04:01:00;100539.94;;;2.42;51.27
75891;BME280;64571;47.512;19.054;2023-04-06T04:04:03;100557.56;;;2.58;51.50
75891;BME280;64571;47.512;19.054;2023-04-06T04:07:06;100559.97;;;2.54;51.41
75891;BME280;64571;47.512;19.054;2023-04-06T04:10:09;100553.03;;;2.51;50.70
75891;BME280;64571;47.512;19.054;2023-04-06T04:13:11;100554.00;;;2.57;50.97
75891;BME280;64571;47.512;19.054;2023-04-06T04:16:14;100550.19;;;2.58;50.25
75891;BME280;64571;47.512;19.054;2023-04-06T04:19:17;100541.94;;;2.58;49.96
75891;BME280;64571;47.512;19.054;2023-04-06T04:22:20;100548.00;;;2.60;49.63
75891;BME280;64571;47.512;19.054;2023-04-06T04:25:22;100549.56;;;2.68;49.54
75891;BME280;64571;47.512;19.054;2023-04-06T04:28:25;100542.88;;;2.75;49.15
75891;BME280;64571;47.512;19.054;2023-04-06T04:31:28;100523.03;;;2.73;50.79
75891;BME280;64571;47.512;19.054;2023-04-06T04:34:32;100543.69;;;2.76;49.58
75891;BME280;64571;47.512;19.054;2023-04-06T04:37:35;100534.12;;;2.78;49.79
75891;BME280;64571;47.512;19.054;2023-04-06T04:40:38;100538.66;;;2.85;50.78
75891;BME280;64571;47.512;19.054;2023-04-06T04:43:41;100513.53;;;2.64;51.61
75891;BME280;64571;47.512;19.054;2023-04-06T04:46:45;100512.34;;;2.60;51.06
75891;BME280;64571;47.512;19.054;2023-04-06T04:49:49;100525.56;;;2.75;52.04
75891;BME280;64571;47.512;19.054;2023-04-06T04:52:53;100530.19;;;2.74;51.37
75891;BME280;64571;47.512;19.054;2023-04-06T04:55:55;100508.31;;;2.63;49.50
75891;BME280;64571;47.512;19.054;2023-04-06T04:59:01;100528.78;;;2.72;48.54
75891;BME280;64571;47.512;19.054;2023-04-06T05:02:04;100531.59;;;2.89;48.09
75891;BME280;64571;47.512;19.054;2023-04-06T05:05:09;100509.03;;;2.87;49.47
75891;BME280;64571;47.512;19.054;2023-04-06T05:08:12;100529.78;;;2.94;51.17
75891;BME280;64571;47.512;19.054;2023-04-06T05:11:15;100535.13;;;3.01;51.12
75891;BME280;64571;47.512;19.054;2023-04-06T05:14:18;100528.22;;;2.98;52.04
75891;BME280;64571;47.512;19.054;2023-04-06T05:17:21;100520.56;;;3.00;51.62
75891;BME280;64571;47.512;19.054;2023-04-06T05:20:24;100515.22;;;2.94;50.99
75891;BME280;64571;47.512;19.054;2023-04-06T05:23:27;100511.50;;;3.00;52.26
75891;BME280;64571;47.512;19.054;2023-04-06T05:26:31;100504.78;;;3.08;50.18
75891;BME280;64571;47.512;19.054;2023-04-06T05:29:35;100498.31;;;3.14;49.99
75891;BME280;64571;47.512;19.054;2023-04-06T05:32:38;100502.03;;;3.08;48.58
75891;BME280;64571;47.512;19.054;2023-04-06T05:35:41;100502.44;;;2.99;48.47
75891;BME280;64571;47.512;19.054;2023-04-06T05:38:43;100494.56;;;3.03;47.40
75891;BME280;64571;47.512;19.054;2023-04-06T05:41:48;100498.47;;;3.07;47.79
75891;BME280;64571;47.512;19.054;2023-04-06T05:44:52;100498.66;;;3.17;47.45
75891;BME280;64571;47.512;19.054;2023-04-06T05:47:55;100482.34;;;3.27;46.89
75891;BME280;64571;47.512;19.054;2023-04-06T05:50:58;100481.25;;;3.28;46.73
75891;BME280;64571;47.512;19.054;2023-04-06T05:54:03;100481.37;;;3.34;46.80
75891;BME280;64571;47.512;19.054;2023-04-06T05:57:06;100462.06;;;3.45;46.78
75891;BME280;64571;47.512;19.054;2023-04-06T06:00:09;100465.41;;;3.47;46.95
75891;BME280;64571;47.512;19.054;2023-04-06T06:03:14;100481.72;;;3.71;47.00
75891;BME280;64571;47.512;19.054;2023-04-06T06:06:20;100479.78;;;3.71;46.81
75891;BME280;64571;47.512;19.054;2023-04-06T06:09:23;100482.25;;;3.90;47.00
75891;BME280;64571;47.512;19.054;2023-04-06T06:12:27;100450.72;;;3.75;47.22
75891;BME280;64571;47.512;19.054;2023-04-06T06:15:29;100477.16;;;3.98;47.32
75891;BME280;64571;47.512;19.054;2023-04-06T06:18:32;100453.84;;;4.01;46.71
75891;BME280;64571;47.512;19.054;2023-04-06T06:21:35;100470.91;;;4.03;45.91
75891;BME280;64571;47.512;19.054;2023-04-06T06:24:38;100470.41;;;4.06;45.67
75891;BME280;64571;47.512;19.054;2023-04-06T06:27:41;100464.66;;;4.07;45.71
75891;BME280;64571;47.512;19.054;2023-04-06T06:30:44;100445.59;;;4.01;45.80
75891;BME280;64571;47.512;19.054;2023-04-06T06:33:49;100463.78;;;4.24;45.32
75891;BME280;64571;47.512;19.054;2023-04-06T06:36:53;100456.44;;;4.51;44.27
75891;BME280;64571;47.512;19.054;2023-04-06T06:39:57;100451.75;;;4.52;44.02
75891;BME280;64571;47.512;19.054;2023-04-06T06:43:00;100428.53;;;4.65;43.87
75891;BME280;64571;47.512;19.054;2023-04-06T06:46:05;100451.34;;;4.87;43.49
75891;BME280;64571;47.512;19.054;2023-04-06T06:49:08;100429.41;;;4.70;42.32
75891;BME280;64571;47.512;19.054;2023-04-06T06:52:11;100447.81;;;4.92;40.61
75891;BME280;64571;47.512;19.054;2023-04-06T06:55:14;100442.06;;;4.98;40.35
75891;BME280;64571;47.512;19.054;2023-04-06T06:58:18;100437.69;;;5.29;40.04
75891;BME280;64571;47.512;19.054;2023-04-06T07:01:24;100439.50;;;5.14;40.00
75891;BME280;64571;47.512;19.054;2023-04-06T07:04:29;100443.06;;;5.14;39.56
75891;BME280;64571;47.512;19.054;2023-04-06T07:07:32;100441.75;;;4.68;40.28
75891;BME280;64571;47.512;19.054;2023-04-06T07:10:35;100419.28;;;4.54;40.73
75891;BME280;64571;47.512;19.054;2023-04-06T07:13:38;100441.97;;;4.88;40.43
75891;BME280;64571;47.512;19.054;2023-04-06T07:16:41;100440.28;;;4.82;40.11
75891;BME280;64571;47.512;19.054;2023-04-06T07:19:44;100446.09;;;4.64;40.50
75891;BME280;64571;47.512;19.054;2023-04-06T07:22:47;100421.53;;;4.57;40.74
75891;BME280;64571;47.512;19.054;2023-04-06T07:25:50;100446.09;;;4.64;40.72
75891;BME280;64571;47.512;19.054;2023-04-06T07:28:54;100444.72;;;5.15;39.98
75891;BME280;64571;47.512;19.054;2023-04-06T07:31:57;100423.00;;;5.19;39.87
75891;BME280;64571;47.512;19.054;2023-04-06T07:35:00;100422.38;;;5.12;40.03
75891;BME280;64571;47.512;19.054;2023-04-06T07:38:03;100442.38;;;5.66;39.49
75891;BME280;64571;47.512;19.054;2023-04-06T07:41:07;100433.31;;;5.71;39.03
75891;BME280;64571;47.512;19.054;2023-04-06T07:44:10;100405.44;;;5.67;38.90
75891;BME280;64571;47.512;19.054;2023-04-06T07:47:12;100426.47;;;5.73;38.81
75891;BME280;64571;47.512;19.054;2023-04-06T07:50:15;100410.16;;;5.72;38.80
75891;BME280;64571;47.512;19.054;2023-04-06T07:53:18;100424.03;;;5.82;38.75
75891;BME280;64571;47.512;19.054;2023-04-06T07:56:21;100429.87;;;5.86;38.94
75891;BME280;64571;47.512;19.054;2023-04-06T07:59:23;100428.75;;;5.87;39.01
75891;BME280;64571;47.512;19.054;2023-04-06T08:02:26;100434.50;;;6.22;37.93
75891;BME280;64571;47.512;19.054;2023-04-06T08:05:29;100429.00;;;6.22;37.85
75891;BME280;64571;47.512;19.054;2023-04-06T08:08:32;100404.31;;;6.00;38.16
75891;BME280;64571;47.512;19.054;2023-04-06T08:11:34;100425.66;;;6.20;37.93
75891;BME280;64571;47.512;19.054;2023-04-06T08:14:37;100428.09;;;6.12;38.33
75891;BME280;64571;47.512;19.054;2023-04-06T08:17:39;100421.78;;;6.21;38.27
75891;BME280;64571;47.512;19.054;2023-04-06T08:20:42;100427.84;;;5.76;38.38
75891;BME280;64571;47.512;19.054;2023-04-06T08:23:45;100427.13;;;5.91;38.55
75891;BME280;64571;47.512;19.054;2023-04-06T08:26:48;100421.53;;;5.80;38.55
75891;BME280;64571;47.512;19.054;2023-04-06T08:29:51;100420.63;;;6.07;38.63
75891;BME280;64571;47.512;19.054;2023-04-06T08:32:53;100411.56;;;6.17;38.24
75891;BME280;64571;47.512;19.054;2023-04-06T08:35:56;100415.69;;;6.14;38.15
75891;BME280;64571;47.512;19.054;2023-04-06T08:39:00;100411.88;;;6.25;38.06
75891;BME280;64571;47.512;19.054;2023-04-06T08:42:03;100407.50;;;6.34;37.80
75891;BME280;64571;47.512;19.054;2023-04-06T08:45:05;100392.13;;;6.59;37.36
75891;BME280;64571;47.512;19.054;2023-04-06T08:48:09;100400.41;;;6.59;37.45
75891;BME280;64571;47.512;19.054;2023-04-06T08:51:11;100404.00;;;6.59;37.49
75891;BME280;64571;47.512;19.054;2023-04-06T08:54:15;100400.50;;;7.10;37.07
75891;BME280;64571;47.512;19.054;2023-04-06T08:57:18;100391.97;;;7.22;36.33
75891;BME280;64571;47.512;19.054;2023-04-06T09:00:22;100380.06;;;6.85;36.34
75891;BME280;64571;47.512;19.054;2023-04-06T09:03:26;100397.66;;;6.64;36.55
75891;BME280;64571;47.512;19.054;2023-04-06T09:06:30;100393.31;;;7.14;35.74
75891;BME280;64571;47.512;19.054;2023-04-06T09:09:33;100394.97;;;6.90;36.27
75891;BME280;64571;47.512;19.054;2023-04-06T09:12:36;100381.75;;;7.07;35.83
75891;BME280;64571;47.512;19.054;2023-04-06T09:15:41;100369.56;;;7.13;35.49
75891;BME280;64571;47.512;19.054;2023-04-06T09:18:47;100380.88;;;7.42;35.52
75891;BME280;64571;47.512;19.054;2023-04-06T09:22:01;100375.66;;;7.35;35.07
75891;BME280;64571;47.512;19.054;2023-04-06T09:25:04;100360.94;;;7.60;35.35
75891;BME280;64571;47.512;19.054;2023-04-06T09:28:07;100347.66;;;7.73;34.73
75891;BME280;64571;47.512;19.054;2023-04-06T09:31:10;100365.06;;;7.73;34.67
75891;BME280;64571;47.512;19.054;2023-04-06T09:34:21;100365.34;;;7.82;34.91
75891;BME280;64571;47.512;19.054;2023-04-06T09:37:24;100351.25;;;7.68;34.76
75891;BME280;64571;47.512;19.054;2023-04-06T09:40:29;100363.38;;;7.87;34.51
75891;BME280;64571;47.512;19.054;2023-04-06T09:43:32;100344.22;;;8.01;34.07
75891;BME280;64571;47.512;19.054;2023-04-06T09:46:40;100355.37;;;7.86;33.75
75891;BME280;64571;47.512;19.054;2023-04-06T09:50:02;100354.66;;;7.34;34.41
75891;BME280;64571;47.512;19.054;2023-04-06T09:53:05;100358.69;;;7.88;34.26
75891;BME280;64571;47.512;19.054;2023-04-06T09:56:11;100340.16;;;7.89;33.56
75891;BME280;64571;47.512;19.054;2023-04-06T09:59:24;100337.25;;;8.19;33.21
75891;BME280;64571;47.512;19.054;2023-04-06T10:05:45;100345.53;;;8.19;32.71
75891;BME280;64571;47.512;19.054;2023-04-06T10:08:50;100352.72;;;8.30;32.34
75891;BME280;64571;47.512;19.054;2023-04-06T10:11:54;100329.97;;;8.44;31.99
75891;BME280;64571;47.512;19.054;2023-04-06T10:14:57;100341.97;;;8.73;31.75
75891;BME280;64571;47.512;19.054;2023-04-06T10:18:01;100325.81;;;8.41;32.71
75891;BME280;64571;47.512;19.054;2023-04-06T10:21:08;100335.94;;;8.66;32.30
75891;BME280;64571;47.512;19.054;2023-04-06T10:24:12;100324.78;;;9.10;31.52
75891;BME280;64571;47.512;19.054;2023-04-06T10:27:15;100307.91;;;9.07;32.20
75891;BME280;64571;47.512;19.054;2023-04-06T10:30:18;100326.03;;;9.28;31.06
75891;BME280;64571;47.512;19.054;2023-04-06T10:33:20;100313.31;;;9.22;30.85
75891;BME280;64571;47.512;19.054;2023-04-06T10:36:31;100316.78;;;9.38;30.54
75891;BME280;64571;47.512;19.054;2023-04-06T10:39:34;100306.00;;;9.31;30.47
75891;BME280;64571;47.512;19.054;2023-04-06T10:42:37;100314.78;;;9.44;30.25
75891;BME280;64571;47.512;19.054;2023-04-06T10:45:41;100301.87;;;9.29;30.40
75891;BME280;64571;47.512;19.054;2023-04-06T10:48:45;100307.31;;;9.39;30.12
75891;BME280;64571;47.512;19.054;2023-04-06T10:51:53;100308.56;;;8.54;30.79
75891;BME280;64571;47.512;19.054;2023-04-06T10:54:57;100309.25;;;9.09;30.51
75891;BME280;64571;47.512;19.054;2023-04-06T10:57:59;100304.66;;;9.29;30.45
75891;BME280;64571;47.512;19.054;2023-04-06T11:01:02;100293.25;;;9.30;30.07
75891;BME280;64571;47.512;19.054;2023-04-06T11:04:05;100277.72;;;9.00;30.17
75891;BME280;64571;47.512;19.054;2023-04-06T11:07:10;100287.78;;;9.25;30.15
75891;BME280;64571;47.512;19.054;2023-04-06T11:10:21;100287.41;;;9.61;29.04
75891;BME280;64571;47.512;19.054;2023-04-06T11:13:24;100273.78;;;9.35;29.05
75891;BME280;64571;47.512;19.054;2023-04-06T11:16:29;100293.66;;;9.48;28.54
75891;BME280;64571;47.512;19.054;2023-04-06T11:19:32;100278.50;;;9.64;28.51
75891;BME280;64571;47.512;19.054;2023-04-06T11:22:35;100288.72;;;9.39;28.67
75891;BME280;64571;47.512;19.054;2023-04-06T11:25:38;100271.88;;;9.60;28.68
75891;BME280;64571;47.512;19.054;2023-04-06T11:28:42;100265.16;;;9.66;28.45
75891;BME280;64571;47.512;19.054;2023-04-06T11:31:47;100272.62;;;9.89;28.37
75891;BME280;64571;47.512;19.054;2023-04-06T11:34:50;100255.25;;;10.03;27.94
75891;BME280;64571;47.512;19.054;2023-04-06T11:37:53;100272.53;;;10.00;28.52
75891;BME280;64571;47.512;19.054;2023-04-06T11:40:55;100272.53;;;10.00;28.83
75891;BME280;64571;47.512;19.054;2023-04-06T11:44:01;100263.28;;;10.28;28.26
75891;BME280;64571;47.512;19.054;2023-04-06T11:47:06;100261.31;;;9.62;28.45
75891;BME280;64571;47.512;19.054;2023-04-06T11:50:11;100267.00;;;9.95;28.71
75891;BME280;64571;47.512;19.054;2023-04-06T11:53:15;100266.12;;;9.99;29.52
75891;BME280;64571;47.512;19.054;2023-04-06T11:56:28;100249.19;;;10.01;29.70
75891;BME280;64571;47.512;19.054;2023-04-06T11:59:32;100260.56;;;9.99;30.08
75891;BME280;64571;47.512;19.054;2023-04-06T12:02:39;100242.12;;;9.66;29.96
75891;BME280;64571;47.512;19.054;2023-04-06T12:05:43;100257.25;;;9.78;30.35
75891;BME280;64571;47.512;19.054;2023-04-06T12:08:46;100259.47;;;9.76;30.69
75891;BME280;64571;47.512;19.054;2023-04-06T12:11:49;100236.78;;;9.50;30.12
75891;BME280;64571;47.512;19.054;2023-04-06T12:14:52;100254.50;;;9.25;30.35
75891;BME280;64571;47.512;19.054;2023-04-06T12:17:55;100251.34;;;9.61;29.86
75891;BME280;64571;47.512;19.054;2023-04-06T12:20:57;100251.41;;;9.56;30.02
75891;BME280;64571;47.512;19.054;2023-04-06T12:24:00;100235.91;;;9.50;29.96
75891;BME280;64571;47.512;19.054;2023-04-06T12:27:03;100248.81;;;9.64;30.67
75891;BME280;64571;47.512;19.054;2023-04-06T12:30:12;100236.03;;;9.39;30.99
75891;BME280;64571;47.512;19.054;2023-04-06T12:33:15;100245.66;;;9.71;30.93
75891;BME280;64571;47.512;19.054;2023-04-06T12:36:19;100243.72;;;10.14;30.57
75891;BME280;64571;47.512;19.054;2023-04-06T12:39:22;100240.22;;;10.47;30.06
75891;BME280;64571;47.512;19.054;2023-04-06T12:42:25;100236.69;;;10.60;29.97
75891;BME280;64571;47.512;19.054;2023-04-06T12:45:31;100214.69;;;10.45;29.81
75891;BME280;64571;47.512;19.054;2023-04-06T12:48:34;100239.44;;;10.22;30.24
75891;BME280;64571;47.512;19.054;2023-04-06T12:51:37;100233.66;;;10.00;30.75
75891;BME280;64571;47.512;19.054;2023-04-06T12:54:41;100216.78;;;9.72;30.88
75891;BME280;64571;47.512;19.054;2023-04-06T12:57:44;100227.09;;;9.90;30.63
75891;BME280;64571;47.512;19.054;2023-04-06T13:00:48;100234.25;;;9.97;30.70
75891;BME280;64571;47.512;19.054;2023-04-06T13:03:51;100231.53;;;9.68;30.67
75891;BME280;64571;47.512;19.054;2023-04-06T13:06:54;100236.94;;;10.02;30.71
75891;BME280;64571;47.512;19.054;2023-04-06T13:09:56;100234.84;;;10.12;30.54
75891;BME280;64571;47.512;19.054;2023-04-06T13:12:59;100233.66;;;10.00;30.64
75891;BME280;64571;47.512;19.054;2023-04-06T13:16:05;100237.00;;;9.97;30.92
75891;BME280;64571;47.512;19.054;2023-04-06T13:19:08;100218.25;;;9.88;30.70
75891;BME280;64571;47.512;19.054;2023-04-06T13:22:11;100228.62;;;10.02;30.98
75891;BME280;64571;47.512;19.054;2023-04-06T13:25:13;100224.31;;;9.90;31.20
75891;BME280;64571;47.512;19.054;2023-04-06T13:28:16;100228.00;;;9.62;31.58
75891;BME280;64571;47.512;19.054;2023-04-06T13:31:19;100220.75;;;9.66;31.76
75891;BME280;64571;47.512;19.054;2023-04-06T13:34:21;100203.59;;;9.64;31.64
75891;BME280;64571;47.512;19.054;2023-04-06T13:37:24;100215.78;;;9.63;32.11
75891;BME280;64571;47.512;19.054;2023-04-06T13:40:27;100222.63;;;9.71;32.47
75891;BME280;64571;47.512;19.054;2023-04-06T13:43:29;100220.41;;;9.73;32.76
75891;BME280;64571;47.512;19.054;2023-04-06T13:46:32;100220.16;;;9.69;33.37
75891;BME280;64571;47.512;19.054;2023-04-06T13:49:35;100220.22;;;9.64;34.58
75891;BME280;64571;47.512;19.054;2023-04-06T13:52:38;100212.75;;;8.82;36.03
75891;BME280;64571;47.512;19.054;2023-04-06T13:55:40;100192.59;;;9.06;35.69
75891;BME280;64571;47.512;19.054;2023-04-06T13:58:43;100211.66;;;9.36;34.31
75891;BME280;64571;47.512;19.054;2023-04-06T14:01:47;100222.09;;;9.45;34.70
75891;BME280;64571;47.512;19.054;2023-04-06T14:04:50;100212.06;;;9.49;34.61
75891;BME280;64571;47.512;19.054;2023-04-06T14:07:52;100206.87;;;9.18;34.78
75891;BME280;64571;47.512;19.054;2023-04-06T14:10:55;100209.31;;;9.49;33.98
75891;BME280;64571;47.512;19.054;2023-04-06T14:13:59;100186.53;;;9.52;33.68
75891;BME280;64571;47.512;19.054;2023-04-06T14:17:01;100200.03;;;9.58;33.62
75891;BME280;64571;47.512;19.054;2023-04-06T14:20:05;100212.25;;;9.57;33.26
75891;BME280;64571;47.512;19.054;2023-04-06T14:23:09;100213.13;;;9.53;33.37
75891;BME280;64571;47.512;19.054;2023-04-06T14:26:11;100208.91;;;9.60;33.13
75891;BME280;64571;47.512;19.054;2023-04-06T14:29:15;100203.31;;;9.42;33.63
75891;BME280;64571;47.512;19.054;2023-04-06T14:32:19;100190.34;;;9.08;34.49
75891;BME280;64571;47.512;19.054;2023-04-06T14:35:22;100211.69;;;9.07;35.01
75891;BME280;64571;47.512;19.054;2023-04-06T14:38:25;100223.31;;;9.09;35.01
75891;BME280;64571;47.512;19.054;2023-04-06T14:41:28;100214.28;;;8.99;35.22
75891;BME280;64571;47.512;19.054;2023-04-06T14:44:33;100220.53;;;9.09;35.46
75891;BME280;64571;47.512;19.054;2023-04-06T14:47:39;100212.63;;;8.98;36.25
75891;BME280;64571;47.512;19.054;2023-04-06T14:50:41;100223.94;;;8.72;36.91
75891;BME280;64571;47.512;19.054;2023-04-06T14:53:48;100240.69;;;8.91;37.40
75891;BME280;64571;47.512;19.054;2023-04-06T14:56:51;100229.88;;;8.60;38.58
75891;BME280;64571;47.512;19.054;2023-04-06T14:59:54;100243.56;;;8.42;39.55
75891;BME280;64571;47.512;19.054;2023-04-06T15:02:57;100245.75;;;8.45;40.02
75891;BME280;64571;47.512;19.054;2023-04-06T15:05:59;100241.91;;;8.41;40.90
75891;BME280;64571;47.512;19.054;2023-04-06T15:09:02;100258.28;;;8.37;41.61
75891;BME280;64571;47.512;19.054;2023-04-06T15:12:05;100270.25;;;8.22;43.64
75891;BME280;64571;47.512;19.054;2023-04-06T15:15:08;100265.44;;;7.89;44.90
75891;BME280;64571;47.512;19.054;2023-04-06T15:18:11;100262.91;;;7.92;45.39
75891;BME280;64571;47.512;19.054;2023-04-06T15:21:14;100261.56;;;7.90;46.27
75891;BME280;64571;47.512;19.054;2023-04-06T15:24:16;100263.28;;;7.75;47.15
75891;BME280;64571;47.512;19.054;2023-04-06T15:27:19;100265.47;;;7.83;47.19
75891;BME280;64571;47.512;19.054;2023-04-06T15:30:22;100245.13;;;7.49;48.68
75891;BME280;64571;47.512;19.054;2023-04-06T15:33:24;100267.78;;;7.51;50.78
75891;BME280;64571;47.512;19.054;2023-04-06T15:36:28;100270.28;;;7.52;51.98
75891;BME280;64571;47.512;19.054;2023-04-06T15:39:32;100249.59;;;7.24;51.60
75891;BME280;64571;47.512;19.054;2023-04-06T15:42:35;100247.66;;;7.25;51.81
75891;BME280;64571;47.512;19.054;2023-04-06T15:45:37;100244.13;;;7.09;51.60
75891;BME280;64571;47.512;19.054;2023-04-06T15:48:41;100267.25;;;7.33;51.01
75891;BME280;64571;47.512;19.054;2023-04-06T15:51:43;100250.69;;;7.28;50.61
75891;BME280;64571;47.512;19.054;2023-04-06T15:54:46;100250.16;;;7.31;50.73
75891;BME280;64571;47.512;19.054;2023-04-06T15:57:49;100263.91;;;7.52;50.23
75891;BME280;64571;47.512;19.054;2023-04-06T16:00:52;100264.19;;;7.50;50.21
75891;BME280;64571;47.512;19.054;2023-04-06T16:03:55;100241.81;;;7.47;50.38